sensor_id;sensor_type;location;lat;lon;timestamp;temperature;humidity
78054;DHT22;67726;45.636;11.752;2023-05-15T00:01:06;13.70;85.70
78054;DHT22;67726;45.636;11.752;2023-05-15T00:03:32;13.70;85.70
78054;DHT22;67726;45.636;11.752;2023-05-15T00:05:57;13.70;85.70
78054;DHT22;67726;45.636;11.752;2023-05-15T00:08:23;13.70;85.90
78054;DHT22;67726;45.636;11.752;2023-05-15T00:10:49;13.60;85.60
78054;DHT22;67726;45.636;11.752;2023-05-15T00:13:16;13.60;85.60
78054;DHT22;67726;45.636;11.752;2023-05-15T00:15:43;13.50;85.70
78054;DHT22;67726;45.636;11.752;2023-05-15T00:18:08;13.60;85.90
78054;DHT22;67726;45.636;11.752;2023-05-15T00:20:34;13.60;85.90
78054;DHT22;67726;45.636;11.752;2023-05-15T00:23:00;13.50;86.00
78054;DHT22;67726;45.636;11.752;2023-05-15T00:25:25;13.40;85.80
78054;DHT22;67726;45.636;11.752;2023-05-15T00:27:51;13.40;85.90
78054;DHT22;67726;45.636;11.752;2023-05-15T00:30:17;13.40;85.90
78054;DHT22;67726;45.636;11.752;2023-05-15T00:32:42;13.40;86.00
78054;DHT22;67726;45.636;11.752;2023-05-15T00:35:08;13.40;86.20
78054;DHT22;67726;45.636;11.752;2023-05-15T00:37:34;13.40;85.90
78054;DHT22;67726;45.636;11.752;2023-05-15T00:39:59;13.40;85.90
78054;DHT22;67726;45.636;11.752;2023-05-15T00:42:25;13.30;86.00
78054;DHT22;67726;45.636;11.752;2023-05-15T00:44:52;13.30;86.00
78054;DHT22;67726;45.636;11.752;2023-05-15T00:47:20;13.30;86.10
78054;DHT22;67726;45.636;11.752;2023-05-15T00:49:47;13.30;86.20
78054;DHT22;67726;45.636;11.752;2023-05-15T00:52:14;13.20;86.00
78054;DHT22;67726;45.636;11.752;2023-05-15T00:54:40;13.10;86.20
78054;DHT22;67726;45.636;11.752;2023-05-15T00:57:07;13.10;86.10
78054;DHT22;67726;45.636;11.752;2023-05-15T00:59:33;13.10;86.10
78054;DHT22;67726;45.636;11.752;2023-05-15T01:02:00;13.10;86.10
78054;DHT22;67726;45.636;11.752;2023-05-15T01:04:26;13.00;86.00
78054;DHT22;67726;45.636;11.752;2023-05-15T01:06:52;13.00;86.10
78054;DHT22;67726;45.636;11.752;2023-05-15T01:09:18;12.90;86.10
78054;DHT22;67726;45.636;11.752;2023-05-15T01:11:46;12.90;86.20
78054;DHT22;67726;45.636;11.752;2023-05-15T01:14:11;12.90;86.10
78054;DHT22;67726;45.636;11.752;2023-05-15T01:16:37;12.80;86.20
78054;DHT22;67726;45.636;11.752;2023-05-15T01:19:03;12.80;86.20
78054;DHT22;67726;45.636;11.752;2023-05-15T01:29:15;12.70;86.20
78054;DHT22;67726;45.636;11.752;2023-05-15T01:31:49;12.80;86.20
78054;DHT22;67726;45.636;11.752;2023-05-15T01:34:18;12.70;86.00
78054;DHT22;67726;45.636;11.752;2023-05-15T01:36:55;12.70;86.20
78054;DHT22;67726;45.636;11.752;2023-05-15T01:39:27;12.70;86.30
78054;DHT22;67726;45.636;11.752;2023-05-15T01:41:59;12.60;87.50
78054;DHT22;67726;45.636;11.752;2023-05-15T01:44:29;12.70;86.10
78054;DHT22;67726;45.636;11.752;2023-05-15T01:46:57;12.60;87.50
78054;DHT22;67726;45.636;11.752;2023-05-15T01:49:25;12.70;86.10
78054;DHT22;67726;45.636;11.752;2023-05-15T01:52:05;12.70;86.20
78054;DHT22;67726;45.636;11.752;2023-05-15T01:54:33;12.50;87.30
78054;DHT22;67726;45.636;11.752;2023-05-15T01:57:01;12.60;87.30
78054;DHT22;67726;45.636;11.752;2023-05-15T01:59:28;12.60;87.60
78054;DHT22;67726;45.636;11.752;2023-05-15T02:01:55;12.50;87.60
78054;DHT22;67726;45.636;11.752;2023-05-15T02:04:22;12.50;87.60
78054;DHT22;67726;45.636;11.752;2023-05-15T02:06:48;12.60;87.40
78054;DHT22;67726;45.636;11.752;2023-05-15T02:09:15;12.50;87.80
78054;DHT22;67726;45.636;11.752;2023-05-15T02:11:41;12.60;87.30
78054;DHT22;67726;45.636;11.752;2023-05-15T02:14:08;12.50;87.60
78054;DHT22;67726;45.636;11.752;2023-05-15T02:16:35;12.40;87.50
78054;DHT22;67726;45.636;11.752;2023-05-15T02:19:01;12.50;87.50
78054;DHT22;67726;45.636;11.752;2023-05-15T02:21:26;12.50;87.30
78054;DHT22;67726;45.636;11.752;2023-05-15T02:23:52;12.40;87.50
78054;DHT22;67726;45.636;11.752;2023-05-15T02:26:32;12.40;87.20
78054;DHT22;67726;45.636;11.752;2023-05-15T02:29:05;12.40;87.20
78054;DHT22;67726;45.636;11.752;2023-05-15T02:31:47;12.40;87.20
78054;DHT22;67726;45.636;11.752;2023-05-15T02:34:25;12.30;87.30
78054;DHT22;67726;45.636;11.752;2023-05-15T02:36:52;12.30;87.10
78054;DHT22;67726;45.636;11.752;2023-05-15T02:39:19;12.20;87.30
78054;DHT22;67726;45.636;11.752;2023-05-15T02:41:48;12.20;87.50
78054;DHT22;67726;45.636;11.752;2023-05-15T02:44:16;12.20;87.10
78054;DHT22;67726;45.636;11.752;2023-05-15T02:46:42;12.30;87.30
78054;DHT22;67726;45.636;11.752;2023-05-15T02:49:09;12.10;87.40
78054;DHT22;67726;45.636;11.752;2023-05-15T02:51:36;12.00;87.10
78054;DHT22;67726;45.636;11.752;2023-05-15T02:54:01;12.00;87.80
78054;DHT22;67726;45.636;11.752;2023-05-15T02:56:27;12.00;87.30
78054;DHT22;67726;45.636;11.752;2023-05-15T02:58:53;11.90;87.10
78054;DHT22;67726;45.636;11.752;2023-05-15T03:01:18;11.90;87.30
78054;DHT22;67726;45.636;11.752;2023-05-15T03:03:46;11.80;87.20
78054;DHT22;67726;45.636;11.752;2023-05-15T03:06:11;11.70;87.20
78054;DHT22;67726;45.636;11.752;2023-05-15T03:08:37;11.70;87.20
78054;DHT22;67726;45.636;11.752;2023-05-15T03:11:02;11.70;87.30
78054;DHT22;67726;45.636;11.752;2023-05-15T03:13:28;11.70;86.90
78054;DHT22;67726;45.636;11.752;2023-05-15T03:15:54;11.80;87.20
78054;DHT22;67726;45.636;11.752;2023-05-15T03:18:19;11.60;87.10
78054;DHT22;67726;45.636;11.752;2023-05-15T03:20:46;11.60;87.30
78054;DHT22;67726;45.636;11.752;2023-05-15T03:23:13;11.60;87.10
78054;DHT22;67726;45.636;11.752;2023-05-15T03:25:38;11.70;87.30
78054;DHT22;67726;45.636;11.752;2023-05-15T03:28:04;11.70;87.40
78054;DHT22;67726;45.636;11.752;2023-05-15T03:30:30;11.50;87.40
78054;DHT22;67726;45.636;11.752;2023-05-15T03:32:55;11.50;87.50
78054;DHT22;67726;45.636;11.752;2023-05-15T03:35:22;11.50;87.70
78054;DHT22;67726;45.636;11.752;2023-05-15T03:37:49;11.40;87.20
78054;DHT22;67726;45.636;11.752;2023-05-15T03:40:14;11.40;87.40
78054;DHT22;67726;45.636;11.752;2023-05-15T03:42:40;11.40;87.50
78054;DHT22;67726;45.636;11.752;2023-05-15T03:45:06;11.50;87.40
78054;DHT22;67726;45.636;11.752;2023-05-15T03:47:32;11.50;87.50
78054;DHT22;67726;45.636;11.752;2023-05-15T03:49:58;11.50;87.50
78054;DHT22;67726;45.636;11.752;2023-05-15T03:52:23;11.50;87.70
78054;DHT22;67726;45.636;11.752;2023-05-15T03:54:49;11.50;87.40
78054;DHT22;67726;45.636;11.752;2023-05-15T03:57:15;11.40;87.40
78054;DHT22;67726;45.636;11.752;2023-05-15T03:59:40;11.50;87.50
78054;DHT22;67726;45.636;11.752;2023-05-15T04:02:06;11.40;87.30
78054;DHT22;67726;45.636;11.752;2023-05-15T04:04:32;11.50;87.30
78054;DHT22;67726;45.636;11.752;2023-05-15T04:06:58;11.50;87.30
78054;DHT22;67726;45.636;11.752;2023-05-15T04:09:24;11.60;87.50
78054;DHT22;67726;45.636;11.752;2023-05-15T04:11:50;11.50;87.50
78054;DHT22;67726;45.636;11.752;2023-05-15T04:14:15;11.50;87.40
78054;DHT22;67726;45.636;11.752;2023-05-15T04:16:41;11.60;87.30
78054;DHT22;67726;45.636;11.752;2023-05-15T04:19:07;11.70;87.70
78054;DHT22;67726;45.636;11.752;2023-05-15T04:21:32;11.70;87.80
78054;DHT22;67726;45.636;11.752;2023-05-15T04:23:58;11.80;87.80
78054;DHT22;67726;45.636;11.752;2023-05-15T04:26:23;11.80;87.70
78054;DHT22;67726;45.636;11.752;2023-05-15T04:28:49;11.80;87.80
78054;DHT22;67726;45.636;11.752;2023-05-15T04:31:15;11.90;87.70
78054;DHT22;67726;45.636;11.752;2023-05-15T04:33:40;12.00;87.80
78054;DHT22;67726;45.636;11.752;2023-05-15T04:36:06;12.10;87.70
78054;DHT22;67726;45.636;11.752;2023-05-15T04:38:32;12.10;87.40
78054;DHT22;67726;45.636;11.752;2023-05-15T04:40:58;12.10;87.50
78054;DHT22;67726;45.636;11.752;2023-05-15T04:43:24;12.00;87.50
78054;DHT22;67726;45.636;11.752;2023-05-15T04:45:50;12.10;87.30
78054;DHT22;67726;45.636;11.752;2023-05-15T04:48:15;12.30;86.30
78054;DHT22;67726;45.636;11.752;2023-05-15T04:50:43;12.30;87.10
78054;DHT22;67726;45.636;11.752;2023-05-15T04:53:09;12.40;87.20
78054;DHT22;67726;45.636;11.752;2023-05-15T04:55:35;12.50;87.20
78054;DHT22;67726;45.636;11.752;2023-05-15T04:58:00;12.70;87.30
78054;DHT22;67726;45.636;11.752;2023-05-15T05:00:27;12.80;85.60
78054;DHT22;67726;45.636;11.752;2023-05-15T05:02:53;12.90;86.00
78054;DHT22;67726;45.636;11.752;2023-05-15T05:05:19;13.00;86.00
78054;DHT22;67726;45.636;11.752;2023-05-15T05:07:45;13.40;87.10
78054;DHT22;67726;45.636;11.752;2023-05-15T05:10:11;14.70;87.40
78054;DHT22;67726;45.636;11.752;2023-05-15T05:12:37;16.70;84.10
78054;DHT22;67726;45.636;11.752;2023-05-15T05:15:03;18.80;78.10
78054;DHT22;67726;45.636;11.752;2023-05-15T05:17:28;20.50;75.20
78054;DHT22;67726;45.636;11.752;2023-05-15T05:19:55;22.10;71.40
78054;DHT22;67726;45.636;11.752;2023-05-15T05:22:20;23.40;70.00
78054;DHT22;67726;45.636;11.752;2023-05-15T05:24:46;24.60;63.90
78054;DHT22;67726;45.636;11.752;2023-05-15T05:27:11;25.40;60.10
78054;DHT22;67726;45.636;11.752;2023-05-15T05:29:37;26.00;54.40
78054;DHT22;67726;45.636;11.752;2023-05-15T05:32:05;26.60;54.10
78054;DHT22;67726;45.636;11.752;2023-05-15T05:34:31;27.20;54.60
78054;DHT22;67726;45.636;11.752;2023-05-15T05:36:56;27.70;57.30
78054;DHT22;67726;45.636;11.752;2023-05-15T05:39:22;28.20;55.80
78054;DHT22;67726;45.636;11.752;2023-05-15T05:41:48;28.90;51.60
78054;DHT22;67726;45.636;11.752;2023-05-15T05:44:13;29.60;53.80
78054;DHT22;67726;45.636;11.752;2023-05-15T05:46:39;30.20;45.60
78054;DHT22;67726;45.636;11.752;2023-05-15T05:49:05;30.40;48.00
78054;DHT22;67726;45.636;11.752;2023-05-15T05:51:30;30.60;52.40
78054;DHT22;67726;45.636;11.752;2023-05-15T05:53:56;30.80;44.90
78054;DHT22;67726;45.636;11.752;2023-05-15T05:56:22;30.90;37.20
78054;DHT22;67726;45.636;11.752;2023-05-15T05:58:48;31.10;45.80
78054;DHT22;67726;45.636;11.752;2023-05-15T06:01:13;31.50;43.60
78054;DHT22;67726;45.636;11.752;2023-05-15T06:03:41;31.90;40.80
78054;DHT22;67726;45.636;11.752;2023-05-15T06:06:07;31.90;43.60
78054;DHT22;67726;45.636;11.752;2023-05-15T06:08:33;31.60;43.70
78054;DHT22;67726;45.636;11.752;2023-05-15T06:10:58;31.40;35.50
78054;DHT22;67726;45.636;11.752;2023-05-15T06:13:24;31.40;43.30
78054;DHT22;67726;45.636;11.752;2023-05-15T06:15:50;31.10;34.00
78054;DHT22;67726;45.636;11.752;2023-05-15T06:18:15;30.60;38.40
78054;DHT22;67726;45.636;11.752;2023-05-15T06:20:41;30.50;47.50
78054;DHT22;67726;45.636;11.752;2023-05-15T06:23:07;30.50;35.60
78054;DHT22;67726;45.636;11.752;2023-05-15T06:25:33;30.80;47.30
78054;DHT22;67726;45.636;11.752;2023-05-15T06:27:59;30.80;36.20
78054;DHT22;67726;45.636;11.752;2023-05-15T06:30:25;31.00;44.40
78054;DHT22;67726;45.636;11.752;2023-05-15T06:32:52;30.50;48.60
78054;DHT22;67726;45.636;11.752;2023-05-15T06:35:18;27.80;33.40
78054;DHT22;67726;45.636;11.752;2023-05-15T06:37:43;27.60;52.50
78054;DHT22;67726;45.636;11.752;2023-05-15T06:40:14;28.30;51.40
78054;DHT22;67726;45.636;11.752;2023-05-15T06:42:40;28.50;50.50
78054;DHT22;67726;45.636;11.752;2023-05-15T06:45:06;28.20;39.30
78054;DHT22;67726;45.636;11.752;2023-05-15T06:47:32;26.60;42.40
78054;DHT22;67726;45.636;11.752;2023-05-15T06:49:57;26.30;38.40
78054;DHT22;67726;45.636;11.752;2023-05-15T06:52:23;24.30;41.50
78054;DHT22;67726;45.636;11.752;2023-05-15T06:54:48;24.30;42.10
78054;DHT22;67726;45.636;11.752;2023-05-15T06:57:15;25.50;46.30
78054;DHT22;67726;45.636;11.752;2023-05-15T06:59:40;27.00;45.00
78054;DHT22;67726;45.636;11.752;2023-05-15T07:02:06;27.60;47.40
78054;DHT22;67726;45.636;11.752;2023-05-15T07:04:31;27.90;37.30
78054;DHT22;67726;45.636;11.752;2023-05-15T07:06:57;26.40;48.90
78054;DHT22;67726;45.636;11.752;2023-05-15T07:09:23;27.90;49.20
78054;DHT22;67726;45.636;11.752;2023-05-15T07:11:49;27.70;35.20
78054;DHT22;67726;45.636;11.752;2023-05-15T07:14:15;26.60;46.50
78054;DHT22;67726;45.636;11.752;2023-05-15T07:16:40;28.00;51.90
78054;DHT22;67726;45.636;11.752;2023-05-15T07:19:09;29.30;41.80
78054;DHT22;67726;45.636;11.752;2023-05-15T07:21:35;30.70;34.20
78054;DHT22;67726;45.636;11.752;2023-05-15T07:24:01;29.60;38.50
78054;DHT22;67726;45.636;11.752;2023-05-15T07:26:26;29.50;39.50
78054;DHT22;67726;45.636;11.752;2023-05-15T07:28:52;28.60;53.80
78054;DHT22;67726;45.636;11.752;2023-05-15T07:31:19;28.00;50.10
78054;DHT22;67726;45.636;11.752;2023-05-15T07:33:44;28.00;38.40
78054;DHT22;67726;45.636;11.752;2023-05-15T07:36:10;28.40;33.40
78054;DHT22;67726;45.636;11.752;2023-05-15T07:38:35;29.10;31.90
78054;DHT22;67726;45.636;11.752;2023-05-15T07:41:01;30.00;57.70
78054;DHT22;67726;45.636;11.752;2023-05-15T07:43:27;31.10;29.10
78054;DHT22;67726;45.636;11.752;2023-05-15T07:45:52;30.40;37.50
78054;DHT22;67726;45.636;11.752;2023-05-15T07:48:19;31.00;31.90
78054;DHT22;67726;45.636;11.752;2023-05-15T07:50:46;30.30;47.20
78054;DHT22;67726;45.636;11.752;2023-05-15T07:53:12;31.60;32.20
78054;DHT22;67726;45.636;11.752;2023-05-15T07:55:39;31.90;39.60
78054;DHT22;67726;45.636;11.752;2023-05-15T07:58:05;32.10;26.60
78054;DHT22;67726;45.636;11.752;2023-05-15T08:00:32;31.40;38.20
78054;DHT22;67726;45.636;11.752;2023-05-15T08:02:58;32.70;46.10
78054;DHT22;67726;45.636;11.752;2023-05-15T08:05:24;33.00;25.60
78054;DHT22;67726;45.636;11.752;2023-05-15T08:07:50;31.90;36.10
78054;DHT22;67726;45.636;11.752;2023-05-15T08:10:18;31.20;28.40
78054;DHT22;67726;45.636;11.752;2023-05-15T08:12:44;27.20;39.70
78054;DHT22;67726;45.636;11.752;2023-05-15T08:15:11;26.80;55.60
78054;DHT22;67726;45.636;11.752;2023-05-15T08:17:37;28.40;32.80
78054;DHT22;67726;45.636;11.752;2023-05-15T08:20:03;27.40;53.50
78054;DHT22;67726;45.636;11.752;2023-05-15T08:22:29;30.00;49.10
78054;DHT22;67726;45.636;11.752;2023-05-15T08:24:55;29.60;35.70
78054;DHT22;67726;45.636;11.752;2023-05-15T08:27:22;28.20;34.20
78054;DHT22;67726;45.636;11.752;2023-05-15T08:29:48;29.00;48.70
78054;DHT22;67726;45.636;11.752;2023-05-15T08:32:13;30.30;46.40
78054;DHT22;67726;45.636;11.752;2023-05-15T08:34:39;31.10;31.50
78054;DHT22;67726;45.636;11.752;2023-05-15T08:37:05;31.00;33.60
78054;DHT22;67726;45.636;11.752;2023-05-15T08:39:31;29.90;44.40
78054;DHT22;67726;45.636;11.752;2023-05-15T08:44:43;30.30;30.00
78054;DHT22;67726;45.636;11.752;2023-05-15T08:47:10;28.40;39.60
78054;DHT22;67726;45.636;11.752;2023-05-15T08:52:17;29.40;35.60
78054;DHT22;67726;45.636;11.752;2023-05-15T08:54:42;29.10;46.30
78054;DHT22;67726;45.636;11.752;2023-05-15T08:57:09;28.90;44.70
78054;DHT22;67726;45.636;11.752;2023-05-15T08:59:36;29.50;56.60
78054;DHT22;67726;45.636;11.752;2023-05-15T09:02:02;30.30;41.40
78054;DHT22;67726;45.636;11.752;2023-05-15T09:04:28;30.40;38.60
78054;DHT22;67726;45.636;11.752;2023-05-15T09:06:54;29.70;29.60
78054;DHT22;67726;45.636;11.752;2023-05-15T09:09:22;29.90;35.30
78054;DHT22;67726;45.636;11.752;2023-05-15T09:11:49;31.70;47.80
78054;DHT22;67726;45.636;11.752;2023-05-15T09:14:15;32.50;27.40
78054;DHT22;67726;45.636;11.752;2023-05-15T09:16:41;32.40;25.60
78054;DHT22;67726;45.636;11.752;2023-05-15T09:19:08;32.80;28.90
78054;DHT22;67726;45.636;11.752;2023-05-15T09:21:34;33.70;23.20
78054;DHT22;67726;45.636;11.752;2023-05-15T09:26:46;32.20;26.20
78054;DHT22;67726;45.636;11.752;2023-05-15T09:29:14;31.00;40.30
78054;DHT22;67726;45.636;11.752;2023-05-15T09:31:40;30.80;37.00
78054;DHT22;67726;45.636;11.752;2023-05-15T09:34:06;30.20;48.40
78054;DHT22;67726;45.636;11.752;2023-05-15T09:36:34;30.00;52.50
78054;DHT22;67726;45.636;11.752;2023-05-15T09:39:00;31.50;37.70
78054;DHT22;67726;45.636;11.752;2023-05-15T09:41:26;32.80;33.60
78054;DHT22;67726;45.636;11.752;2023-05-15T09:43:54;31.30;27.60
78054;DHT22;67726;45.636;11.752;2023-05-15T09:46:21;31.40;50.90
78054;DHT22;67726;45.636;11.752;2023-05-15T09:48:48;29.90;27.70
78054;DHT22;67726;45.636;11.752;2023-05-15T09:51:15;29.40;31.80
78054;DHT22;67726;45.636;11.752;2023-05-15T09:53:46;30.40;28.30
78054;DHT22;67726;45.636;11.752;2023-05-15T09:56:12;30.60;32.60
78054;DHT22;67726;45.636;11.752;2023-05-15T09:58:51;29.50;37.10
78054;DHT22;67726;45.636;11.752;2023-05-15T10:01:19;31.00;55.70
78054;DHT22;67726;45.636;11.752;2023-05-15T10:03:59;32.60;46.30
78054;DHT22;67726;45.636;11.752;2023-05-15T10:06:25;33.40;36.90
78054;DHT22;67726;45.636;11.752;2023-05-15T10:08:54;33.00;25.60
78054;DHT22;67726;45.636;11.752;2023-05-15T10:11:20;32.90;25.50
78054;DHT22;67726;45.636;11.752;2023-05-15T10:13:48;33.00;49.50
78054;DHT22;67726;45.636;11.752;2023-05-15T10:16:14;33.60;49.20
78054;DHT22;67726;45.636;11.752;2023-05-15T10:18:40;33.00;24.90
78054;DHT22;67726;45.636;11.752;2023-05-15T10:21:08;31.20;52.70
78054;DHT22;67726;45.636;11.752;2023-05-15T10:23:37;29.30;37.90
78054;DHT22;67726;45.636;11.752;2023-05-15T10:27:00;30.10;54.90
78054;DHT22;67726;45.636;11.752;2023-05-15T10:29:12;31.50;53.00
78054;DHT22;67726;45.636;11.752;2023-05-15T10:31:41;33.70;32.80
78054;DHT22;67726;45.636;11.752;2023-05-15T10:34:08;34.70;43.00
78054;DHT22;67726;45.636;11.752;2023-05-15T10:36:35;34.20;24.00
78054;DHT22;67726;45.636;11.752;2023-05-15T10:39:04;35.20;30.40
78054;DHT22;67726;45.636;11.752;2023-05-15T10:41:32;35.00;18.10
78054;DHT22;67726;45.636;11.752;2023-05-15T10:44:00;37.10;43.30
78054;DHT22;67726;45.636;11.752;2023-05-15T10:46:32;37.20;19.70
78054;DHT22;67726;45.636;11.752;2023-05-15T10:48:59;37.20;39.00
78054;DHT22;67726;45.636;11.752;2023-05-15T10:51:30;36.50;20.80
78054;DHT22;67726;45.636;11.752;2023-05-15T10:53:59;37.20;30.50
78054;DHT22;67726;45.636;11.752;2023-05-15T10:56:37;38.00;17.10
78054;DHT22;67726;45.636;11.752;2023-05-15T10:59:08;35.90;34.10
78054;DHT22;67726;45.636;11.752;2023-05-15T11:01:38;33.30;31.70
78054;DHT22;67726;45.636;11.752;2023-05-15T11:06:30;29.90;46.40
78054;DHT22;67726;45.636;11.752;2023-05-15T11:14:22;31.00;43.50
78054;DHT22;67726;45.636;11.752;2023-05-15T11:19:30;31.90;43.40
78054;DHT22;67726;45.636;11.752;2023-05-15T11:22:22;32.50;46.30
78054;DHT22;67726;45.636;11.752;2023-05-15T11:25:07;32.80;21.20
78054;DHT22;67726;45.636;11.752;2023-05-15T11:27:44;33.50;24.10
78054;DHT22;67726;45.636;11.752;2023-05-15T11:30:17;33.20;20.40
78054;DHT22;67726;45.636;11.752;2023-05-15T11:35:35;31.60;39.50
78054;DHT22;67726;45.636;11.752;2023-05-15T11:40:50;30.10;37.30
78054;DHT22;67726;45.636;11.752;2023-05-15T11:45:56;29.60;61.10
78054;DHT22;67726;45.636;11.752;2023-05-15T11:48:23;29.60;46.90
78054;DHT22;67726;45.636;11.752;2023-05-15T11:50:50;29.90;56.50
78054;DHT22;67726;45.636;11.752;2023-05-15T11:53:18;30.30;57.00
78054;DHT22;67726;45.636;11.752;2023-05-15T11:55:44;30.30;60.20
78054;DHT22;67726;45.636;11.752;2023-05-15T11:58:15;30.30;30.00
78054;DHT22;67726;45.636;11.752;2023-05-15T12:00:45;29.70;46.80
78054;DHT22;67726;45.636;11.752;2023-05-15T12:03:19;29.10;35.80
78054;DHT22;67726;45.636;11.752;2023-05-15T12:05:45;29.40;29.30
78054;DHT22;67726;45.636;11.752;2023-05-15T12:08:12;29.10;58.30
78054;DHT22;67726;45.636;11.752;2023-05-15T12:10:45;29.30;33.90
78054;DHT22;67726;45.636;11.752;2023-05-15T12:13:11;29.40;57.70
78054;DHT22;67726;45.636;11.752;2023-05-15T12:15:44;29.70;52.50
78054;DHT22;67726;45.636;11.752;2023-05-15T12:18:11;30.10;66.90
78054;DHT22;67726;45.636;11.752;2023-05-15T12:20:39;30.40;60.10
78054;DHT22;67726;45.636;11.752;2023-05-15T12:23:07;30.60;50.60
78054;DHT22;67726;45.636;11.752;2023-05-15T12:25:35;31.00;59.00
78054;DHT22;67726;45.636;11.752;2023-05-15T12:28:02;31.40;66.70
78054;DHT22;67726;45.636;11.752;2023-05-15T12:30:34;31.30;40.20
78054;DHT22;67726;45.636;11.752;2023-05-15T12:33:04;31.30;53.30
78054;DHT22;67726;45.636;11.752;2023-05-15T12:35:48;31.00;25.10
78054;DHT22;67726;45.636;11.752;2023-05-15T12:38:14;30.60;32.10
78054;DHT22;67726;45.636;11.752;2023-05-15T12:40:43;30.70;67.00
78054;DHT22;67726;45.636;11.752;2023-05-15T12:43:12;30.70;35.80
78054;DHT22;67726;45.636;11.752;2023-05-15T12:45:39;30.40;49.80
78054;DHT22;67726;45.636;11.752;2023-05-15T12:48:05;30.80;40.10
78054;DHT22;67726;45.636;11.752;2023-05-15T12:50:33;31.30;56.70
78054;DHT22;67726;45.636;11.752;2023-05-15T12:53:03;31.00;46.90
78054;DHT22;67726;45.636;11.752;2023-05-15T12:55:32;29.70;26.50
78054;DHT22;67726;45.636;11.752;2023-05-15T12:58:03;27.60;34.00
78054;DHT22;67726;45.636;11.752;2023-05-15T13:00:30;28.30;33.90
78054;DHT22;67726;45.636;11.752;2023-05-15T13:02:57;27.90;33.70
78054;DHT22;67726;45.636;11.752;2023-05-15T13:05:25;27.70;31.90
78054;DHT22;67726;45.636;11.752;2023-05-15T13:07:51;28.00;33.10
78054;DHT22;67726;45.636;11.752;2023-05-15T13:10:22;28.60;42.90
78054;DHT22;67726;45.636;11.752;2023-05-15T13:12:52;29.70;55.20
78054;DHT22;67726;45.636;11.752;2023-05-15T13:15:34;30.30;29.20
78054;DHT22;67726;45.636;11.752;2023-05-15T13:18:08;31.20;27.60
78054;DHT22;67726;45.636;11.752;2023-05-15T13:23:01;28.60;28.30
78054;DHT22;67726;45.636;11.752;2023-05-15T13:25:27;29.00;33.00
78054;DHT22;67726;45.636;11.752;2023-05-15T13:27:55;28.80;47.40
78054;DHT22;67726;45.636;11.752;2023-05-15T13:30:21;27.30;28.30
78054;DHT22;67726;45.636;11.752;2023-05-15T13:32:47;28.00;48.50
78054;DHT22;67726;45.636;11.752;2023-05-15T13:35:13;29.00;37.00
78054;DHT22;67726;45.636;11.752;2023-05-15T13:37:38;30.20;44.00
78054;DHT22;67726;45.636;11.752;2023-05-15T13:40:07;31.10;56.00
78054;DHT22;67726;45.636;11.752;2023-05-15T13:42:37;31.70;43.50
78054;DHT22;67726;45.636;11.752;2023-05-15T13:45:21;32.10;38.50
78054;DHT22;67726;45.636;11.752;2023-05-15T13:47:47;32.00;26.90
78054;DHT22;67726;45.636;11.752;2023-05-15T13:50:14;32.30;52.00
78054;DHT22;67726;45.636;11.752;2023-05-15T13:52:41;32.60;50.70
78054;DHT22;67726;45.636;11.752;2023-05-15T13:55:07;31.70;35.90
78054;DHT22;67726;45.636;11.752;2023-05-15T13:57:37;30.90;39.30
78054;DHT22;67726;45.636;11.752;2023-05-15T14:00:08;30.70;47.90
78054;DHT22;67726;45.636;11.752;2023-05-15T14:02:41;31.10;37.10
78054;DHT22;67726;45.636;11.752;2023-05-15T14:05:08;30.30;33.60
78054;DHT22;67726;45.636;11.752;2023-05-15T14:07:33;29.60;41.00
78054;DHT22;67726;45.636;11.752;2023-05-15T14:09:59;29.10;28.20
78054;DHT22;67726;45.636;11.752;2023-05-15T14:12:25;29.40;51.70
78054;DHT22;67726;45.636;11.752;2023-05-15T14:14:51;29.60;44.60
78054;DHT22;67726;45.636;11.752;2023-05-15T14:17:16;28.40;33.40
78054;DHT22;67726;45.636;11.752;2023-05-15T14:19:43;28.50;37.30
78054;DHT22;67726;45.636;11.752;2023-05-15T14:22:09;27.80;40.40
78054;DHT22;67726;45.636;11.752;2023-05-15T14:24:35;27.60;42.40
78054;DHT22;67726;45.636;11.752;2023-05-15T14:27:01;27.30;46.50
78054;DHT22;67726;45.636;11.752;2023-05-15T14:29:26;27.50;51.30
78054;DHT22;67726;45.636;11.752;2023-05-15T14:31:52;27.70;42.20
78054;DHT22;67726;45.636;11.752;2023-05-15T14:34:20;27.70;36.70
78054;DHT22;67726;45.636;11.752;2023-05-15T14:36:47;27.80;32.00
78054;DHT22;67726;45.636;11.752;2023-05-15T14:39:16;27.80;38.50
78054;DHT22;67726;45.636;11.752;2023-05-15T14:41:43;27.70;33.30
78054;DHT22;67726;45.636;11.752;2023-05-15T14:44:09;27.30;33.20
78054;DHT22;67726;45.636;11.752;2023-05-15T14:46:35;27.10;32.50
78054;DHT22;67726;45.636;11.752;2023-05-15T14:49:02;26.80;42.00
78054;DHT22;67726;45.636;11.752;2023-05-15T14:51:28;26.10;35.40
78054;DHT22;67726;45.636;11.752;2023-05-15T14:53:53;25.60;31.40
78054;DHT22;67726;45.636;11.752;2023-05-15T14:56:19;25.60;39.10
78054;DHT22;67726;45.636;11.752;2023-05-15T14:58:45;25.90;61.80
78054;DHT22;67726;45.636;11.752;2023-05-15T15:01:11;26.00;43.90
78054;DHT22;67726;45.636;11.752;2023-05-15T15:03:36;26.00;51.10
78054;DHT22;67726;45.636;11.752;2023-05-15T15:06:02;25.90;44.00
78054;DHT22;67726;45.636;11.752;2023-05-15T15:08:28;25.50;36.50
78054;DHT22;67726;45.636;11.752;2023-05-15T15:10:54;25.10;47.30
78054;DHT22;67726;45.636;11.752;2023-05-15T15:13:19;24.80;42.20
78054;DHT22;67726;45.636;11.752;2023-05-15T15:15:45;24.80;53.90
78054;DHT22;67726;45.636;11.752;2023-05-15T15:18:11;24.80;47.50
78054;DHT22;67726;45.636;11.752;2023-05-15T15:20:36;24.90;58.40
78054;DHT22;67726;45.636;11.752;2023-05-15T15:23:02;24.90;41.60
78054;DHT22;67726;45.636;11.752;2023-05-15T15:25:29;24.90;52.20
78054;DHT22;67726;45.636;11.752;2023-05-15T15:27:55;24.80;37.70
78054;DHT22;67726;45.636;11.752;2023-05-15T15:30:20;24.80;40.20
78054;DHT22;67726;45.636;11.752;2023-05-15T15:32:46;24.30;51.20
78054;DHT22;67726;45.636;11.752;2023-05-15T15:35:12;24.30;45.40
78054;DHT22;67726;45.636;11.752;2023-05-15T15:37:38;24.40;55.60
78054;DHT22;67726;45.636;11.752;2023-05-15T15:40:05;24.20;36.90
78054;DHT22;67726;45.636;11.752;2023-05-15T15:42:34;24.20;50.10
78054;DHT22;67726;45.636;11.752;2023-05-15T15:45:00;24.30;63.20
78054;DHT22;67726;45.636;11.752;2023-05-15T15:47:26;24.30;51.70
78054;DHT22;67726;45.636;11.752;2023-05-15T15:49:54;24.30;52.30
78054;DHT22;67726;45.636;11.752;2023-05-15T15:52:19;24.20;50.50